Time;durP1;ratioP1;P1;durP2;ratioP2;P2;SDS_P1;SDS_P2;PMS_P1;PMS_P2;Temp;Humidity;BMP_temperature;BMP_pressure;BME280_temperature;BME280_humidity;BME280_pressure;Samples;Min_cycle;Max_cycle;Signal;HPM_P1;HPM_P2
2022/06/23 00:01:45;;;;;;;13.07;4.72;;;;;;;18.47;100.00;95536.00;5064275;28;20555;-69
2022/06/23 00:04:16;;;;;;;12.95;4.75;;;;;;;18.38;100.00;95540.66;5064533;28;20024;-69
2022/06/23 00:07:14;;;;;;;12.73;4.85;;;;;;;18.32;100.00;95538.75;5067524;28;20051;-69
2022/06/23 00:09:45;;;;;;;9.50;4.03;;;;;;;18.33;100.00;95538.56;5052821;28;20044;-69
2022/06/23 00:12:29;;;;;;;11.95;4.40;;;;;;;18.44;100.00;95531.88;5068913;28;20531;-69
2022/06/23 00:14:56;;;;;;;18.15;5.03;;;;;;;18.47;100.00;95538.66;5068659;28;20495;-69
2022/06/23 00:17:30;;;;;;;15.20;4.30;;;;;;;18.47;100.00;95534.13;5069078;28;20032;-69
2022/06/23 00:19:59;;;;;;;21.38;4.50;;;;;;;18.44;100.00;95531.88;5064216;28;20032;-69
2022/06/23 00:22:29;;;;;;;12.95;5.15;;;;;;;18.40;100.00;95535.09;5069077;28;20020;-69
2022/06/23 00:24:56;;;;;;;18.60;5.35;;;;;;;18.43;100.00;95534.72;5068757;28;20024;-69
2022/06/23 00:27:28;;;;;;;14.68;4.82;;;;;;;18.44;100.00;95526.53;5068665;28;20027;-69
2022/06/23 00:29:58;;;;;;;17.33;5.35;;;;;;;18.37;100.00;95530.16;5068692;28;20075;-69
2022/06/23 00:32:26;;;;;;;15.45;5.25;;;;;;;18.38;100.00;95527.31;5065482;28;20077;-69
2022/06/23 00:35:00;;;;;;;16.15;5.35;;;;;;;18.36;100.00;95534.69;5068691;28;20028;-69
2022/06/23 00:37:26;;;;;;;14.43;5.18;;;;;;;18.31;100.00;95521.94;5068244;28;20380;-69
2022/06/23 00:39:56;;;;;;;21.77;5.93;;;;;;;18.30;100.00;95524.78;5071541;28;20383;-69
2022/06/23 00:42:37;;;;;;;13.10;5.43;;;;;;;18.28;100.00;95527.66;5071962;28;20510;-69
2022/06/23 00:45:12;;;;;;;15.32;4.65;;;;;;;18.36;100.00;95528.53;5064004;28;20023;-69
2022/06/23 00:47:56;;;;;;;20.48;5.88;;;;;;;18.37;100.00;95519.50;5071377;28;20020;-69
2022/06/23 00:50:34;;;;;;;14.93;6.18;;;;;;;18.36;100.00;95518.69;5068976;28;20063;-69
2022/06/23 00:53:11;;;;;;;18.40;5.70;;;;;;;18.34;100.00;95515.38;5068058;28;20090;-69
2022/06/23 00:55:56;;;;;;;19.05;6.32;;;;;;;18.31;100.00;95515.78;5069633;28;20102;-69
2022/06/23 00:59:09;;;;;;;15.02;4.97;;;;;;;18.32;100.00;95518.25;5068308;28;20024;-69
2022/06/23 01:01:52;;;;;;;19.92;5.40;;;;;;;18.29;100.00;95509.81;4970822;28;20043;-69
2022/06/23 01:04:24;;;;;;;16.52;4.88;;;;;;;18.24;100.00;95510.44;4970687;28;20027;-69
2022/06/23 01:07:42;;;;;;;14.98;6.20;;;;;;;18.30;100.00;95496.31;5032341;28;20044;-69
2022/06/23 01:10:27;;;;;;;18.25;6.53;;;;;;;18.28;100.00;95494.84;5069060;28;20066;-69
2022/06/23 01:13:01;;;;;;;13.13;6.07;;;;;;;18.27;100.00;95488.72;5071491;28;20020;-69
2022/06/23 01:15:42;;;;;;;18.27;5.72;;;;;;;18.15;100.00;95491.09;5071903;28;20298;-69
2022/06/23 01:18:26;;;;;;;12.27;4.70;;;;;;;18.06;100.00;95494.91;5069720;28;20466;-69
2022/06/23 01:20:57;;;;;;;12.02;4.88;;;;;;;18.08;100.00;95490.22;5071578;28;20035;-69
2022/06/23 01:23:36;;;;;;;12.18;4.82;;;;;;;18.06;100.00;95489.59;5071477;28;20020;-69
2022/06/23 01:26:35;;;;;;;9.38;4.60;;;;;;;18.00;100.00;95485.81;5059866;28;20531;-69
2022/06/23 01:29:18;;;;;;;11.48;4.22;;;;;;;17.89;100.00;95486.38;5031905;28;20028;-69
2022/06/23 01:31:53;;;;;;;13.55;4.80;;;;;;;17.78;100.00;95479.72;5068643;28;20020;-69
2022/06/23 01:34:33;;;;;;;11.77;4.72;;;;;;;17.68;100.00;95488.03;5067427;28;20024;-69
2022/06/23 01:37:10;;;;;;;11.75;4.03;;;;;;;17.55;100.00;95491.41;5069580;28;20024;-69
2022/06/23 01:39:58;;;;;;;13.55;4.28;;;;;;;17.46;100.00;95485.38;5070142;28;20024;-69
2022/06/23 01:42:48;;;;;;;13.85;4.88;;;;;;;17.40;100.00;95482.66;5070353;28;20031;-69
2022/06/23 01:45:25;;;;;;;12.60;4.50;;;;;;;17.31;100.00;95484.59;5069939;28;20063;-69
2022/06/23 01:48:09;;;;;;;15.43;4.30;;;;;;;17.30;100.00;95490.94;5071406;28;20063;-69
2022/06/23 01:50:53;;;;;;;6.72;3.50;;;;;;;17.31;100.00;95484.59;5070711;28;20020;-69
2022/06/23 01:53:27;;;;;;;10.00;3.58;;;;;;;17.27;100.00;95478.03;5072144;28;20029;-69
2022/06/23 01:56:18;;;;;;;15.15;4.40;;;;;;;17.27;100.00;95489.50;5071148;28;20027;-69
2022/06/23 01:58:51;;;;;;;11.50;3.55;;;;;;;17.24;100.00;95491.72;5069617;28;20028;-69
2022/06/23 02:02:11;;;;;;;11.02;3.22;;;;;;;17.29;100.00;95498.13;5071093;28;20016;-69
2022/06/23 02:04:57;;;;;;;12.68;4.03;;;;;;;17.30;100.00;95498.94;4981847;28;20038;-69
2022/06/23 02:07:42;;;;;;;12.25;5.00;;;;;;;17.32;100.00;95504.88;5065763;28;20510;-70
2022/06/23 02:10:40;;;;;;;14.57;5.00;;;;;;;17.23;100.00;95500.69;5039557;28;20480;-69
2022/06/23 02:13:48;;;;;;;27.58;5.35;;;;;;;17.17;100.00;95491.63;5066769;28;20095;-69
2022/06/23 02:17:15;;;;;;;9.70;4.22;;;;;;;17.07;100.00;95494.59;5069706;28;20044;-69
2022/06/23 02:19:45;;;;;;;13.77;4.70;;;;;;;17.09;100.00;95503.22;5029243;28;20078;-69
2022/06/23 02:22:29;;;;;;;12.65;4.65;;;;;;;17.12;100.00;95494.84;5070454;28;20051;-69
2022/06/23 02:25:03;;;;;;;9.50;4.20;;;;;;;17.13;100.00;95498.34;5063867;28;20074;-69
2022/06/23 02:27:41;;;;;;;14.52;5.15;;;;;;;17.10;100.00;95494.22;5067766;28;20059;-69
2022/06/23 02:30:19;;;;;;;10.98;4.00;;;;;;;17.09;100.00;95499.75;5067282;28;20025;-69
2022/06/23 02:33:04;;;;;;;10.30;4.75;;;;;;;17.16;100.00;95497.97;5070383;28;20058;-69
2022/06/23 02:35:43;;;;;;;13.77;3.97;;;;;;;17.17;100.00;95500.44;5070115;28;20027;-69
2022/06/23 02:38:20;;;;;;;19.95;4.53;;;;;;;17.10;100.00;95499.53;5070062;28;20032;-69
2022/06/23 02:41:11;;;;;;;15.10;5.20;;;;;;;17.06;100.00;95503.59;5068450;28;20570;-69
2022/06/23 02:43:43;;;;;;;7.10;3.58;;;;;;;17.08;100.00;95496.25;5069227;28;20028;-70
2022/06/23 02:46:40;;;;;;;13.13;4.28;;;;;;;17.07;100.00;95507.88;5070020;28;20029;-69
2022/06/23 02:49:45;;;;;;;12.25;3.70;;;;;;;17.08;100.00;95511.38;5068979;28;20048;-69
2022/06/23 02:52:15;;;;;;;10.55;3.63;;;;;;;17.10;100.00;95515.50;5064566;28;20399;-69
2022/06/23 02:54:55;;;;;;;11.05;4.13;;;;;;;17.02;100.00;95505.81;5063787;28;20074;-70
2022/06/23 02:57:36;;;;;;;18.27;4.45;;;;;;;16.85;100.00;95517.63;5069749;28;20021;-70
2022/06/23 03:00:43;;;;;;;13.85;3.90;;;;;;;16.73;100.00;95514.63;5069874;28;20027;-69
2022/06/23 03:03:13;;;;;;;11.82;4.35;;;;;;;16.60;100.00;95517.94;5041671;28;20049;-69
2022/06/23 03:06:12;;;;;;;14.52;3.90;;;;;;;16.52;100.00;95513.53;5068701;28;20032;-69
2022/06/23 03:09:05;;;;;;;11.55;3.90;;;;;;;16.56;100.00;95512.16;5036348;28;20051;-69
2022/06/23 03:11:52;;;;;;;9.57;3.10;;;;;;;16.61;100.00;95517.72;5058541;28;20036;-69
2022/06/23 03:14:42;;;;;;;13.43;3.65;;;;;;;16.55;100.00;95512.31;5061396;28;20025;-69
2022/06/23 03:17:24;;;;;;;11.98;3.72;;;;;;;16.46;100.00;95516.91;5063915;28;20051;-70
2022/06/23 03:20:01;;;;;;;15.35;4.15;;;;;;;16.39;100.00;95524.81;5069187;28;20483;-70
2022/06/23 03:22:39;;;;;;;12.88;3.80;;;;;;;16.35;100.00;95523.50;5064490;28;20032;-70
2022/06/23 03:25:24;;;;;;;7.03;3.30;;;;;;;16.29;100.00;95514.44;5069305;28;20033;-70
2022/06/23 03:27:52;;;;;;;9.30;3.60;;;;;;;16.25;100.00;95522.94;5069458;28;20020;-70
2022/06/23 03:30:23;;;;;;;11.57;4.18;;;;;;;16.21;100.00;95517.16;5069210;28;20024;-69
2022/06/23 03:32:55;;;;;;;11.00;3.63;;;;;;;16.20;100.00;95522.69;5069763;28;20020;-69
2022/06/23 03:35:22;;;;;;;10.10;3.75;;;;;;;16.19;100.00;95529.81;5069824;28;20039;-69
2022/06/23 03:38:02;;;;;;;20.63;4.30;;;;;;;16.20;100.00;95520.81;5069956;28;20028;-69
2022/06/23 03:43:32;;;;;;;8.80;3.53;;;;;;;16.24;100.00;95523.97;5069502;28;20108;-69
2022/06/23 03:46:06;;;;;;;13.80;4.53;;;;;;;16.22;100.00;95528.63;5058264;28;20024;-69
2022/06/23 03:48:53;;;;;;;12.15;4.57;;;;;;;16.17;100.00;95519.38;5069718;28;20020;-70
2022/06/23 03:51:24;;;;;;;17.42;4.65;;;;;;;16.13;100.00;95525.22;5060132;28;20021;-69
2022/06/23 03:54:12;;;;;;;15.43;3.90;;;;;;;16.11;100.00;95525.38;5069596;28;20072;-69
2022/06/23 03:56:52;;;;;;;8.80;3.10;;;;;;;16.13;100.00;95525.22;5063782;28;20094;-69
2022/06/23 03:59:50;;;;;;;11.18;4.05;;;;;;;16.06;100.00;95527.78;5069408;28;20032;-69
2022/06/23 04:02:30;;;;;;;16.23;3.80;;;;;;;16.05;100.00;95528.78;5051559;28;20476;-68
2022/06/23 04:05:17;;;;;;;12.98;4.00;;;;;;;16.06;100.00;95521.66;5069484;28;20024;-69
2022/06/23 04:08:00;;;;;;;13.05;3.83;;;;;;;16.01;100.00;95523.00;5069191;28;20426;-68
2022/06/23 04:10:33;;;;;;;10.15;3.67;;;;;;;16.07;100.00;95532.06;5069334;28;20033;-68
2022/06/23 04:13:05;;;;;;;5.20;2.33;;;;;;;16.03;100.00;95528.13;5070769;28;20031;-68
2022/06/23 04:15:37;;;;;;;6.90;2.38;;;;;;;15.89;100.00;95538.53;5073903;28;20040;-69
2022/06/23 04:18:23;;;;;;;6.38;2.88;;;;;;;15.92;100.00;95542.66;5073684;28;20024;-68
2022/06/23 04:21:10;;;;;;;10.10;3.33;;;;;;;15.92;100.00;95547.97;5067856;28;20056;-69
2022/06/23 04:23:42;;;;;;;7.22;2.60;;;;;;;15.95;100.00;95544.97;5070184;28;20053;-69
2022/06/23 04:26:18;;;;;;;6.20;2.60;;;;;;;15.92;100.00;95537.34;5073576;28;20024;-69
2022/06/23 04:29:26;;;;;;;9.70;3.53;;;;;;;15.98;100.00;95547.25;5073323;28;20090;-69
2022/06/23 04:32:06;;;;;;;12.50;3.80;;;;;;;16.02;100.00;95547.72;5018366;28;20109;-69
2022/06/23 04:34:50;;;;;;;7.13;3.00;;;;;;;16.09;100.00;95547.84;5073590;28;20028;-69
2022/06/23 04:37:41;;;;;;;11.18;3.65;;;;;;;16.11;100.00;95548.47;5073474;28;20475;-69
2022/06/23 04:40:31;;;;;;;12.40;3.58;;;;;;;16.21;100.00;95549.03;5073021;28;20023;-69
2022/06/23 04:43:03;;;;;;;12.32;4.05;;;;;;;16.29;100.00;95546.31;5067866;28;20411;-69
2022/06/23 04:45:33;;;;;;;15.40;4.10;;;;;;;16.31;100.00;95546.97;5067246;28;20035;-69
2022/06/23 04:48:03;;;;;;;19.85;5.20;;;;;;;16.30;100.00;95544.47;5071446;28;20368;-69
2022/06/23 04:50:40;;;;;;;14.10;4.18;;;;;;;16.28;100.00;95547.31;5072878;28;20025;-69
2022/06/23 04:53:16;;;;;;;15.88;4.63;;;;;;;16.32;100.00;95548.59;5073128;28;20024;-69
2022/06/23 04:55:42;;;;;;;19.77;4.38;;;;;;;16.37;100.00;95545.41;5072732;28;20025;-69
2022/06/23 04:58:21;;;;;;;16.15;4.50;;;;;;;16.40;100.00;95547.69;5072931;28;20036;-69
2022/06/23 05:00:53;;;;;;;14.13;4.07;;;;;;;16.35;100.00;95541.28;5072702;28;20095;-69
2022/06/23 05:03:30;;;;;;;23.35;5.05;;;;;;;16.35;100.00;95531.47;5071549;28;20044;-69
2022/06/23 05:06:03;;;;;;;16.98;4.63;;;;;;;16.36;100.00;95535.78;5067522;28;20048;-70
2022/06/23 05:08:31;;;;;;;17.15;4.68;;;;;;;16.44;100.00;95540.19;5072750;28;20035;-71
2022/06/23 05:11:17;;;;;;;11.65;5.18;;;;;;;16.56;100.00;95544.03;5072575;28;20483;-70
2022/06/23 05:13:49;;;;;;;11.18;3.95;;;;;;;16.65;100.00;95533.31;5072530;28;20025;-70
2022/06/23 05:16:26;;;;;;;14.15;4.97;;;;;;;16.71;100.00;95538.72;5072349;28;20507;-70
2022/06/23 05:18:54;;;;;;;19.13;5.22;;;;;;;16.78;100.00;95538.81;5061791;28;20024;-70
2022/06/23 05:21:26;;;;;;;16.83;5.55;;;;;;;16.86;100.00;95530.72;5066780;28;20111;-70
2022/06/23 05:23:59;;;;;;;15.40;4.68;;;;;;;16.95;100.00;95535.97;5072242;28;20491;-70
2022/06/23 05:26:27;;;;;;;11.52;4.10;;;;;;;17.11;100.00;95533.09;5069591;28;20037;-70
2022/06/23 05:29:00;;;;;;;17.63;5.85;;;;;;;17.27;100.00;95529.41;5072320;28;20034;-70
2022/06/23 05:31:34;;;;;;;27.45;12.45;;;;;;;17.36;100.00;95529.28;5068912;28;20029;-70
2022/06/23 05:34:18;;;;;;;28.83;13.88;;;;;;;17.40;100.00;95530.53;5072459;28;20048;-70
2022/06/23 05:37:05;;;;;;;24.35;7.78;;;;;;;17.39;100.00;95531.56;5072074;28;20103;-69
2022/06/23 05:39:49;;;;;;;14.60;5.03;;;;;;;17.40;100.00;95531.38;5061381;28;20487;-70
2022/06/23 05:42:18;;;;;;;18.40;5.15;;;;;;;17.46;100.00;95535.94;5064662;28;20074;-70
2022/06/23 05:44:51;;;;;;;17.60;5.65;;;;;;;17.65;100.00;95528.34;5061536;28;20098;-69
2022/06/23 05:47:19;;;;;;;16.40;4.80;;;;;;;17.86;100.00;95527.50;5063830;28;20028;-69
2022/06/23 05:49:52;;;;;;;17.88;4.90;;;;;;;17.95;100.00;95522.06;5039069;28;20408;-69
2022/06/23 05:52:35;;;;;;;19.83;5.30;;;;;;;18.02;100.00;95517.63;5070216;28;20107;-67
2022/06/23 05:55:17;;;;;;;23.08;4.20;;;;;;;18.08;100.00;95526.69;5062333;28;20074;-68
2022/06/23 05:57:55;;;;;;;15.80;4.82;;;;;;;18.21;100.00;95526.78;5067008;28;20051;-67
2022/06/23 06:00:40;;;;;;;16.35;5.22;;;;;;;18.32;100.00;95528.09;5067942;28;20488;-68
2022/06/23 06:03:21;;;;;;;11.70;3.88;;;;;;;18.50;100.00;95522.28;5067782;28;20155;-68
2022/06/23 06:05:51;;;;;;;21.83;4.55;;;;;;;18.65;100.00;95515.97;5067956;28;20396;-66
2022/06/23 06:08:19;;;;;;;21.23;5.30;;;;;;;18.79;99.90;95511.53;5068437;28;20029;-68
2022/06/23 06:10:44;;;;;;;21.70;4.72;;;;;;;18.83;99.25;95518.94;5069223;28;20499;-67
2022/06/23 06:13:18;;;;;;;17.25;5.28;;;;;;;18.94;98.28;95519.41;5071499;28;20028;-68
2022/06/23 06:15:52;;;;;;;15.88;4.68;;;;;;;18.98;96.85;95515.31;5071405;28;20041;-67
2022/06/23 06:18:36;;;;;;;22.98;4.90;;;;;;;18.90;96.67;95524.31;5071071;28;20085;-66
2022/06/23 06:21:06;;;;;;;13.23;4.50;;;;;;;18.89;95.67;95518.16;5071202;28;20024;-67
2022/06/23 06:23:41;;;;;;;18.60;4.90;;;;;;;18.84;96.59;95523.25;5070910;28;20036;-67
2022/06/23 06:26:09;;;;;;;;;;;;;;;19.14;96.34;95517.69;5071655;28;20483;-67
2022/06/23 06:28:34;;;;;;;17.60;4.80;;;;;;;19.45;95.01;95521.66;5071007;28;19939;-66
2022/06/23 06:31:18;;;;;;;17.20;4.55;;;;;;;19.66;92.47;95521.69;5062914;28;20028;-66
2022/06/23 06:34:09;;;;;;;18.00;4.50;;;;;;;19.93;92.47;95522.56;5057324;28;20036;-66
2022/06/23 06:36:41;;;;;;;12.55;4.22;;;;;;;20.15;91.95;95517.00;5060134;28;20033;-67
2022/06/23 06:39:31;;;;;;;12.48;4.95;;;;;;;20.37;89.26;95522.13;5067411;28;20028;-67
2022/06/23 06:42:09;;;;;;;19.42;4.10;;;;;;;20.65;88.44;95519.19;5068403;28;20025;-68
2022/06/23 06:44:40;;;;;;;12.38;3.97;;;;;;;20.96;87.79;95508.84;5068747;28;20032;-68
2022/06/23 06:47:06;;;;;;;11.88;4.03;;;;;;;21.27;84.47;95515.28;5068069;28;20021;-68
2022/06/23 06:49:32;;;;;;;17.20;3.20;;;;;;;21.49;83.86;95513.13;5067964;28;20048;-68
2022/06/23 06:51:58;;;;;;;10.20;3.78;;;;;;;21.78;81.02;95523.47;5068309;28;20033;-68
2022/06/23 06:54:43;;;;;;;11.70;3.78;;;;;;;22.08;78.66;95512.91;5068529;28;20024;-68
2022/06/23 06:57:36;;;;;;;14.77;4.10;;;;;;;22.41;78.22;95505.63;5125022;27;20380;-67
2022/06/23 07:00:20;;;;;;;11.05;3.13;;;;;;;22.54;75.69;95505.53;5120208;28;20024;-67
2022/06/23 07:02:55;;;;;;;10.25;3.60;;;;;;;22.77;76.24;95496.00;5115220;28;20015;-67
2022/06/23 07:05:46;;;;;;;11.93;3.35;;;;;;;23.05;74.38;95502.69;5105817;28;20619;-67
2022/06/23 07:08:37;;;;;;;11.73;3.58;;;;;;;23.09;74.00;95493.13;5112419;28;20035;-68
2022/06/23 07:11:17;;;;;;;15.65;3.83;;;;;;;23.29;72.48;95492.91;5125210;28;20034;-68
2022/06/23 07:14:06;;;;;;;14.35;3.72;;;;;;;23.38;68.83;95487.22;5114144;28;20024;-67
2022/06/23 07:16:41;;;;;;;22.50;4.50;;;;;;;23.65;69.18;95484.13;5110535;28;20081;-67
2022/06/23 07:19:13;;;;;;;;;;;;;;;23.89;69.42;95485.84;5121185;28;20513;-67
2022/06/23 07:21:49;;;;;;;13.73;3.47;;;;;;;24.06;67.82;95487.84;5108313;28;19966;-67
2022/06/23 07:24:21;;;;;;;15.20;4.07;;;;;;;24.09;67.11;95486.59;5124924;28;20044;-67
2022/06/23 07:26:52;;;;;;;11.70;4.00;;;;;;;24.38;65.86;95486.69;5108438;28;20081;-67
2022/06/23 07:29:44;;;;;;;10.23;3.47;;;;;;;24.68;64.26;95486.56;5098124;28;20035;-67
2022/06/23 07:32:12;;;;;;;13.45;3.63;;;;;;;24.83;64.74;95480.69;5097551;28;20081;-67
2022/06/23 07:35:03;;;;;;;16.50;5.68;;;;;;;24.81;65.46;95474.75;5103252;28;20097;-67
2022/06/23 07:37:33;;;;;;;20.67;6.60;;;;;;;24.69;66.75;95474.75;5095135;28;20517;-67
2022/06/23 07:40:06;;;;;;;11.10;4.63;;;;;;;24.83;67.57;95466.44;5090437;28;20032;-67
2022/06/23 07:42:41;;;;;;;9.75;3.50;;;;;;;24.53;65.62;95462.00;5103081;28;20028;-67
2022/06/23 07:45:14;;;;;;;15.50;3.70;;;;;;;24.42;67.86;95450.19;5095672;28;20030;-67
2022/06/23 07:47:39;;;;;;;14.85;4.22;;;;;;;25.17;62.25;95453.91;5093696;28;20074;-67
2022/06/23 07:50:05;;;;;;;12.98;4.07;;;;;;;25.22;63.26;95438.91;5100836;28;20028;-67
2022/06/23 07:52:31;;;;;;;15.00;3.97;;;;;;;24.82;64.55;95433.31;5105566;28;20031;-67
2022/06/23 07:54:56;;;;;;;17.13;4.95;;;;;;;24.57;66.18;95426.31;5101452;28;20023;-67
2022/06/23 07:57:22;;;;;;;13.13;4.15;;;;;;;24.91;62.51;95432.94;5110811;28;20031;-67
2022/06/23 07:59:57;;;;;;;17.25;4.15;;;;;;;25.01;61.47;95436.66;5114404;28;20520;-67
2022/06/23 08:03:01;;;;;;;18.02;4.28;;;;;;;25.29;63.06;95437.72;5116155;28;20099;-67
2022/06/23 08:05:40;;;;;;;16.17;4.45;;;;;;;25.25;61.03;95430.34;5100055;28;20040;-67
2022/06/23 08:08:12;;;;;;;13.93;4.22;;;;;;;25.23;60.53;95443.25;5095289;28;20042;-67
2022/06/23 08:10:38;;;;;;;9.25;3.85;;;;;;;25.20;60.16;95441.03;5092295;28;20028;-67
2022/06/23 08:13:09;;;;;;;14.13;4.30;;;;;;;25.31;61.68;95429.38;5079125;28;20032;-67
2022/06/23 08:18:42;;;;;;;16.65;3.67;;;;;;;26.13;58.38;95424.53;5112616;28;20047;-67
2022/06/23 08:21:15;;;;;;;13.35;4.30;;;;;;;26.11;58.70;95417.75;5107262;28;20034;-67
2022/06/23 08:23:52;;;;;;;14.90;4.45;;;;;;;26.85;57.32;95413.91;5111889;28;20711;-67
2022/06/23 08:26:21;;;;;;;17.80;4.40;;;;;;;26.99;58.41;95402.72;5112706;28;20032;-67
2022/06/23 08:28:51;;;;;;;14.38;4.15;;;;;;;26.95;58.30;95396.19;5102704;28;20019;-66
2022/06/23 08:31:18;;;;;;;15.98;4.20;;;;;;;27.54;55.61;95398.16;5112592;28;20027;-67
2022/06/23 08:33:44;;;;;;;18.65;4.80;;;;;;;27.48;55.97;95393.75;5111361;28;20117;-67
2022/06/23 08:36:13;;;;;;;15.13;4.38;;;;;;;27.77;54.85;95393.47;5112252;28;20032;-67
2022/06/23 08:38:45;;;;;;;15.77;4.70;;;;;;;27.53;54.91;95401.94;5111860;28;20027;-67
2022/06/23 08:41:41;;;;;;;17.20;4.07;;;;;;;27.82;53.77;95398.13;5101266;28;20256;-67
2022/06/23 08:44:22;;;;;;;13.05;4.05;;;;;;;27.81;54.73;95399.19;5085081;28;20024;-67
2022/06/23 08:46:58;;;;;;;15.50;4.70;;;;;;;28.36;51.74;95407.13;5079549;28;20301;-67
2022/06/23 08:49:39;;;;;;;18.33;4.88;;;;;;;28.15;52.92;95401.56;5085258;28;20028;-67
2022/06/23 08:52:23;;;;;;;13.40;3.45;;;;;;;27.68;51.85;95398.53;5076723;28;20036;-67
2022/06/23 08:55:04;;;;;;;11.73;4.45;;;;;;;27.84;51.55;95395.97;5090344;28;20061;-67
2022/06/23 08:57:51;;;;;;;12.57;4.07;;;;;;;27.63;53.43;95384.16;5081018;28;20063;-67
2022/06/23 09:00:42;;;;;;;16.35;4.47;;;;;;;28.20;51.39;95381.88;5079652;28;20032;-67
2022/06/23 09:03:16;;;;;;;14.32;4.57;;;;;;;28.07;51.18;95373.09;5080890;28;20239;-67
2022/06/23 09:06:09;;;;;;;13.63;4.78;;;;;;;28.02;52.66;95378.50;5081735;28;20507;-67
2022/06/23 09:08:54;;;;;;;14.88;4.13;;;;;;;28.37;52.09;95365.44;5090940;28;20023;-67
2022/06/23 09:11:50;;;;;;;14.02;4.18;;;;;;;28.79;51.61;95364.56;5085449;28;20031;-67
2022/06/23 09:14:27;;;;;;;15.48;4.70;;;;;;;29.35;49.74;95360.34;5080582;28;20036;-68
2022/06/23 09:17:02;;;;;;;20.42;4.82;;;;;;;29.78;48.26;95353.88;5084463;28;20039;-67
2022/06/23 09:19:49;;;;;;;14.48;4.82;;;;;;;29.81;47.74;95351.41;5082972;28;20142;-67
2022/06/23 09:22:17;;;;;;;15.60;5.10;;;;;;;29.44;49.54;95355.25;5088064;28;20055;-68
2022/06/23 09:25:04;;;;;;;17.10;3.95;;;;;;;29.80;48.86;95348.97;5090601;28;20035;-67
2022/06/23 09:28:13;;;;;;;14.52;4.05;;;;;;;29.48;49.55;95344.66;5083169;28;20035;-68
2022/06/23 09:31:00;;;;;;;11.48;3.78;;;;;;;29.45;49.29;95340.59;5078662;28;20028;-68
2022/06/23 09:33:53;;;;;;;12.52;4.15;;;;;;;29.75;48.42;95338.94;5089228;28;20028;-68
2022/06/23 09:36:51;;;;;;;12.77;3.95;;;;;;;29.55;49.07;95346.00;5103148;28;20061;-68
2022/06/23 09:39:41;;;;;;;16.17;4.30;;;;;;;29.72;48.44;95329.44;5103493;28;20023;-67
2022/06/23 09:42:33;;;;;;;14.73;4.30;;;;;;;29.96;48.39;95328.88;5101129;28;20024;-68
2022/06/23 09:45:25;;;;;;;21.95;4.80;;;;;;;30.37;46.67;95332.56;5088748;28;20032;-67
2022/06/23 09:48:08;;;;;;;18.20;4.90;;;;;;;29.94;48.05;95324.81;5095588;28;20028;-68
2022/06/23 09:50:56;;;;;;;14.38;5.18;;;;;;;29.73;48.98;95339.22;5086092;28;20107;-68
2022/06/23 09:54:12;;;;;;;19.00;4.70;;;;;;;30.50;45.14;95331.16;5081942;28;20498;-69
2022/06/23 09:57:01;;;;;;;13.07;4.13;;;;;;;29.97;45.64;95335.09;5054651;28;20051;-68
2022/06/23 10:00:01;;;;;;;18.85;4.60;;;;;;;30.36;44.81;95339.09;5077194;28;20023;-69
2022/06/23 10:02:44;;;;;;;14.32;4.65;;;;;;;30.08;46.48;95335.94;5083623;28;20043;-68
2022/06/23 10:05:18;;;;;;;16.47;4.47;;;;;;;30.23;45.52;95338.59;5084538;28;20114;-68
2022/06/23 10:08:05;;;;;;;18.17;4.80;;;;;;;30.72;44.67;95338.97;5087617;28;20274;-70
2022/06/23 10:11:14;;;;;;;13.88;4.18;;;;;;;30.35;44.66;95337.47;5083147;28;20031;-68
2022/06/23 10:14:03;;;;;;;15.23;4.93;;;;;;;29.84;46.26;95328.34;5082769;28;20384;-68
2022/06/23 10:16:31;;;;;;;18.33;5.03;;;;;;;30.36;45.81;95325.53;5105592;28;20074;-67
2022/06/23 10:19:42;;;;;;;13.05;3.78;;;;;;;30.21;45.71;95323.69;5104536;28;20027;-69
2022/06/23 10:22:26;;;;;;;14.70;4.30;;;;;;;30.70;44.68;95314.00;5106497;28;20045;-67
2022/06/23 10:25:25;;;;;;;16.58;4.95;;;;;;;30.94;47.23;95310.59;5087776;28;20027;-68
2022/06/23 10:28:12;;;;;;;22.65;5.38;;;;;;;31.02;42.61;95315.44;5075268;28;20020;-67
2022/06/23 10:30:52;;;;;;;19.65;4.65;;;;;;;31.02;43.57;95310.81;5083591;28;20266;-67
2022/06/23 10:33:51;;;;;;;15.35;5.28;;;;;;;31.21;41.59;95299.31;5089257;28;20031;-68
2022/06/23 10:36:58;;;;;;;19.83;4.88;;;;;;;31.10;42.55;95292.28;5090115;28;20034;-68
2022/06/23 10:39:35;;;;;;;20.20;5.78;;;;;;;31.10;40.52;95279.50;5086004;28;20017;-69
2022/06/23 10:42:16;;;;;;;20.40;5.30;;;;;;;30.09;40.03;95288.72;5100441;28;20407;-70
2022/06/23 10:44:56;;;;;;;17.48;5.35;;;;;;;30.07;41.33;95277.31;5107966;28;20112;-68
2022/06/23 10:47:59;;;;;;;16.27;4.95;;;;;;;30.83;41.89;95275.31;5089962;28;20035;-68
2022/06/23 10:50:27;;;;;;;16.77;5.28;;;;;;;31.02;38.70;95277.38;5103513;28;20390;-67
2022/06/23 10:53:23;;;;;;;22.63;5.60;;;;;;;30.47;39.99;95275.53;5090153;28;20020;-67
2022/06/23 10:56:17;;;;;;;21.13;5.15;;;;;;;30.55;38.73;95274.94;5086505;28;20048;-67
2022/06/23 10:59:06;;;;;;;24.33;5.00;;;;;;;30.98;37.15;95271.72;5077018;28;20060;-67
2022/06/23 11:01:57;;;;;;;19.48;4.80;;;;;;;31.76;34.43;95270.28;5080113;28;20054;-68
2022/06/23 11:04:34;;;;;;;15.05;4.63;;;;;;;31.39;35.69;95281.47;5086046;28;20613;-68
2022/06/23 11:07:11;;;;;;;14.55;4.90;;;;;;;30.61;36.22;95278.47;5076403;28;20024;-67
2022/06/23 11:09:42;;;;;;;20.88;4.68;;;;;;;30.69;35.92;95268.91;5074717;28;20033;-71
2022/06/23 11:12:28;;;;;;;23.00;5.07;;;;;;;31.66;33.37;95268.47;5078791;28;20040;-68
2022/06/23 11:14:56;;;;;;;16.27;4.93;;;;;;;31.92;32.69;95263.56;5097764;28;20122;-67
2022/06/23 11:17:53;;;;;;;21.48;4.90;;;;;;;31.70;33.09;95262.13;5081787;28;20024;-68
2022/06/23 11:20:47;;;;;;;19.58;5.05;;;;;;;30.49;36.28;95254.34;5089646;28;20032;-68
2022/06/23 11:23:26;;;;;;;13.63;5.25;;;;;;;30.44;36.73;95244.31;5079547;28;20050;-69
2022/06/23 11:26:15;;;;;;;18.20;4.85;;;;;;;29.91;37.39;95230.41;5080476;28;20040;-67
2022/06/23 11:28:56;;;;;;;18.08;4.90;;;;;;;30.44;37.05;95232.66;5083329;28;20099;-76
2022/06/23 11:31:37;;;;;;;14.98;4.68;;;;;;;30.92;34.28;95240.22;5083463;28;20051;-75
2022/06/23 11:34:11;;;;;;;16.52;4.50;;;;;;;31.41;33.90;95234.97;5075337;28;20032;-75
2022/06/23 11:37:30;;;;;;;13.87;5.17;;;;;;;31.72;33.96;95230.03;5089516;28;20427;-75
2022/06/23 11:40:10;;;;;;;14.43;4.28;;;;;;;32.24;30.76;95224.00;4999074;28;20516;-77
2022/06/23 11:42:47;;;;;;;14.75;4.60;;;;;;;31.40;34.79;95228.72;5079519;28;20391;-72
2022/06/23 11:45:24;;;;;;;19.25;4.30;;;;;;;31.48;34.70;95218.31;5091121;28;20398;-72
2022/06/23 11:48:14;;;;;;;15.00;4.18;;;;;;;31.73;34.44;95219.94;5080930;28;20024;-74
2022/06/23 11:50:52;;;;;;;20.08;4.53;;;;;;;32.18;33.58;95219.75;5082028;28;20024;-73
2022/06/23 11:53:56;;;;;;;22.90;4.97;;;;;;;32.08;32.47;95217.13;5086280;28;20503;-73
2022/06/23 11:56:32;;;;;;;12.43;3.95;;;;;;;31.02;33.54;95215.69;5008069;28;20104;-78
2022/06/23 11:59:16;;;;;;;19.00;4.15;;;;;;;29.72;37.18;95209.31;5088782;28;20040;-73
2022/06/23 12:01:41;;;;;;;18.75;4.55;;;;;;;29.88;37.11;95210.06;5110819;28;20062;-74
2022/06/23 12:04:12;;;;;;;14.23;4.10;;;;;;;29.81;36.14;95204.94;5106399;28;20700;-73
2022/06/23 12:06:49;;;;;;;14.38;4.65;;;;;;;29.72;35.41;95218.25;5109034;28;20096;-73
2022/06/23 12:09:39;;;;;;;13.32;4.35;;;;;;;29.97;35.90;95210.31;5102099;28;20028;-73
2022/06/23 12:12:05;;;;;;;14.98;4.07;;;;;;;29.85;36.40;95202.47;5091847;28;20096;-72
2022/06/23 12:14:31;;;;;;;17.30;4.05;;;;;;;30.06;35.32;95207.84;5106864;28;20405;-75
2022/06/23 12:17:15;;;;;;;16.98;4.30;;;;;;;29.14;37.25;95205.88;5069281;28;20031;-72
2022/06/23 12:20:10;;;;;;;19.38;4.20;;;;;;;28.75;39.31;95209.09;5092784;28;20024;-77
2022/06/23 12:22:38;;;;;;;;;;;;;;;28.38;39.37;95205.50;5107904;28;20068;-77
2022/06/23 12:25:12;;;;;;;14.32;4.60;;;;;;;28.57;38.77;95199.59;5109339;28;19927;-74
2022/06/23 12:27:46;;;;;;;11.45;3.50;;;;;;;27.89;39.87;95206.66;5110518;28;20063;-72
2022/06/23 12:30:16;;;;;;;14.38;3.58;;;;;;;28.46;37.61;95201.47;5089981;28;20021;-73